»·PEaware :: N4245G KSJC-KSAN

N4245G :: KSJC-KSAN

FLIGHT INFORMATION

Flight Status: Arrived
Operator: Privately registered:
United States
More flights under this callsign
Pilot: Jamie L. (18851)
Aircraft: BEECH AIRCRAFT PREMIER
(PRM1)
More flights by this aircraft type
Origin: KSJC Mineta San Jose Intl
United States
Destination: KSAN San Diego Intl-Lindbergh
United States
More flights between these airports :: More routes between these airports
Route: +TECKY3 EBAYE AVE J1 LAX COMIX1
File this flight plan on PilotEdge
Remarks:
Altitude:
(Current/Filed)
30,000ft
Speed:
(Current/Filed)
260kts
Departed: 26-Apr-18 09:48 AM
Arrived: 26-Apr-18 11:02 AM
Distance/Time
Traveled:
362nm/1:14
Distance/Time
To Go:
Arrived

Flight Plot

Page will automatically refresh every two minutes.

Flight plan parsing failed; only flown route is shown


Map Options




Map Legend


Flown Route
Filed Route
Departure Airport
Arrival Airport
Navaid (VOR, NDB)
Fix

Horizontal Profiles

Position Reports

Time Latitude Longitude Heading Altitude Ground
Speed
26-Apr-18 09:21 37.352069 -121.921551 44 67ft 0kts
26-Apr-18 09:22 37.352069 -121.921551 44 67ft 0kts
26-Apr-18 09:23 37.352069 -121.921551 44 67ft 0kts
26-Apr-18 09:24 37.352069 -121.921551 44 67ft 0kts
26-Apr-18 09:25 37.352069 -121.921551 44 67ft 0kts
26-Apr-18 09:26 37.352069 -121.921551 44 67ft 0kts
26-Apr-18 09:27 37.352069 -121.921551 44 67ft 0kts
26-Apr-18 09:28 37.352069 -121.921551 44 67ft 0kts
26-Apr-18 09:29 37.352069 -121.921551 44 67ft 0kts
26-Apr-18 09:30 37.352069 -121.921551 44 67ft 0kts
26-Apr-18 09:31 37.352069 -121.921551 44 67ft 0kts
26-Apr-18 09:32 37.352069 -121.921551 44 67ft 0kts
26-Apr-18 09:33 37.352069 -121.921551 44 67ft 0kts
26-Apr-18 09:34 37.352069 -121.921551 44 67ft 0kts
26-Apr-18 09:35 37.352069 -121.921551 44 67ft 0kts
26-Apr-18 09:36 37.352069 -121.921551 44 67ft 0kts
26-Apr-18 09:37 37.352069 -121.921551 44 67ft 0kts
26-Apr-18 09:38 37.352069 -121.921551 44 67ft 0kts
26-Apr-18 09:39 37.352070 -121.921551 44 67ft 0kts
26-Apr-18 09:40 37.352070 -121.921551 44 67ft 0kts
26-Apr-18 09:41 37.352070 -121.921551 44 67ft 0kts
26-Apr-18 09:42 37.352070 -121.921551 44 67ft 0kts
26-Apr-18 09:43 37.352070 -121.921550 44 67ft 0kts
26-Apr-18 09:44 37.352758 -121.920007 45 67ft 0kts
26-Apr-18 09:45 37.352801 -121.919950 45 67ft 3kts
26-Apr-18 09:46 37.353735 -121.920071 318 67ft 17kts
26-Apr-18 09:47 37.382911 -121.950676 319 1544ft 212kts
26-Apr-18 09:48 37.434278 -121.951103 70 3819ft 228kts
26-Apr-18 09:49 37.398213 -121.886091 144 6478ft 260kts
26-Apr-18 09:50 37.346687 -121.818422 134 9096ft 272kts
26-Apr-18 09:51 37.291779 -121.757273 144 11703ft 265kts
26-Apr-18 09:52 37.239197 -121.688833 147 14337ft 285kts
26-Apr-18 09:53 37.180446 -121.620373 150 16937ft 290kts
26-Apr-18 09:54 37.120151 -121.551944 152 19540ft 290kts
26-Apr-18 09:55 37.055203 -121.480755 153 22044ft 333kts
26-Apr-18 09:56 36.982865 -121.403082 153 24452ft 347kts
26-Apr-18 09:57 36.910044 -121.324731 154 26851ft 340kts
26-Apr-18 09:58 36.839258 -121.249123 156 29113ft 333kts
26-Apr-18 09:59 36.766080 -121.172458 155 30141ft 364kts
26-Apr-18 10:00 36.684180 -121.086446 153 30139ft 399kts
26-Apr-18 10:01 36.598021 -120.995502 153 30134ft 411kts
26-Apr-18 10:02 36.509132 -120.904667 153 30122ft 416kts
26-Apr-18 10:03 36.419030 -120.813189 153 30113ft 418kts
26-Apr-18 10:04 36.328837 -120.721899 152 30107ft 419kts
26-Apr-18 10:05 36.238424 -120.630676 152 30089ft 420kts
26-Apr-18 10:06 36.147624 -120.539355 152 30086ft 420kts
26-Apr-18 10:07 36.056958 -120.448465 152 30083ft 420kts
26-Apr-18 10:08 35.966059 -120.357626 152 30080ft 421kts
26-Apr-18 10:09 35.875348 -120.265248 148 30081ft 426kts
26-Apr-18 10:10 35.790365 -120.162006 144 30080ft 431kts
26-Apr-18 10:11 35.707224 -120.055494 144 30080ft 432kts
26-Apr-18 10:12 35.620075 -119.956032 153 30086ft 419kts
26-Apr-18 10:13 35.526142 -119.872704 155 30079ft 416kts
26-Apr-18 10:14 35.454085 -119.811208 155 30077ft 416kts
26-Apr-18 10:15 35.386441 -119.753433 155 30081ft 416kts
26-Apr-18 10:16 35.291637 -119.672181 155 30071ft 416kts
26-Apr-18 10:17 35.196484 -119.590680 154 30077ft 416kts
26-Apr-18 10:18 35.101636 -119.509646 154 30079ft 416kts
26-Apr-18 10:19 35.006609 -119.428740 154 30062ft 417kts
26-Apr-18 10:20 34.911167 -119.347688 153 30063ft 417kts
26-Apr-18 10:21 34.816051 -119.267131 153 30068ft 417kts
26-Apr-18 10:22 34.720863 -119.186737 153 30061ft 417kts
26-Apr-18 10:23 34.625154 -119.106158 153 30052ft 418kts
26-Apr-18 10:24 34.529497 -119.025884 153 30052ft 419kts
26-Apr-18 10:25 34.449656 -118.959007 153 30040ft 419kts
26-Apr-18 10:26 34.354379 -118.876365 149 30023ft 424kts
26-Apr-18 10:27 34.264278 -118.783614 146 30013ft 426kts
26-Apr-18 10:28 34.160486 -118.672886 145 30000ft 427kts
26-Apr-18 10:29 34.073988 -118.580903 145 30000ft 427kts
26-Apr-18 10:30 33.984897 -118.486620 145 29914ft 421kts
26-Apr-18 10:31 33.901128 -118.390538 140 28237ft 417kts
26-Apr-18 10:32 33.834724 -118.305331 138 26574ft 411kts
26-Apr-18 10:33 33.758550 -118.205520 138 24623ft 402kts
26-Apr-18 10:34 33.683072 -118.106582 138 22798ft 401kts
26-Apr-18 10:35 33.611756 -118.012809 138 20799ft 359kts
26-Apr-18 10:36 33.544481 -117.927133 140 18936ft 349kts
26-Apr-18 10:37 33.475418 -117.845887 141 17135ft 346kts
26-Apr-18 10:38 33.408594 -117.766304 139 15553ft 331kts
26-Apr-18 10:39 33.345914 -117.690119 139 14907ft 310kts
26-Apr-18 10:40 33.284503 -117.616246 141 14907ft 319kts
26-Apr-18 10:41 33.216258 -117.550324 148 13673ft 307kts
26-Apr-18 10:42 33.147444 -117.492186 149 12389ft 300kts
26-Apr-18 10:43 33.080029 -117.435919 148 10904ft 281kts
26-Apr-18 10:44 33.015108 -117.381678 146 9118ft 287kts
26-Apr-18 10:45 32.950693 -117.327683 146 7983ft 284kts
26-Apr-18 10:46 32.887008 -117.274534 146 7226ft 272kts
26-Apr-18 10:47 32.825945 -117.219256 129 6895ft 279kts
26-Apr-18 10:48 32.796254 -117.141434 104 6023ft 251kts
26-Apr-18 10:49 32.776373 -117.061715 108 5907ft 250kts
26-Apr-18 10:50 32.745982 -116.987973 134 5911ft 248kts
26-Apr-18 10:51 32.715179 -116.915764 109 4979ft 229kts
26-Apr-18 10:52 32.692559 -116.847970 125 3993ft 216kts
26-Apr-18 10:53 32.657076 -116.866834 277 3906ft 175kts
26-Apr-18 10:54 32.665010 -116.924769 281 3898ft 183kts
26-Apr-18 10:55 32.675111 -116.973549 290 3900ft 169kts
26-Apr-18 10:56 32.691745 -117.024707 296 3294ft 157kts
26-Apr-18 10:57 32.704026 -117.068553 288 2359ft 130kts
26-Apr-18 10:58 32.714018 -117.109825 285 1418ft 128kts
26-Apr-18 10:59 32.723945 -117.150334 286 727ft 126kts
26-Apr-18 11:00 32.733347 -117.188773 286 20ft 74kts
26-Apr-18 11:01 32.734051 -117.194846 184 20ft 0kts
26-Apr-18 11:02 32.733998 -117.194847 175 20ft 3kts

Navigation Log

Ident Type
Flight plan parsing failed, navigation log unavailable